createdAt,value
2022-08-14T00:00:47.609Z,29.17
2022-08-14T00:06:00.012Z,29.22
2022-08-14T00:11:02.230Z,28.94
2022-08-14T00:16:08.373Z,28.86
2022-08-14T00:21:10.946Z,28.81
2022-08-14T00:26:21.627Z,29.00
2022-08-14T00:31:34.969Z,28.84
2022-08-14T00:36:49.710Z,28.89
2022-08-14T00:41:51.730Z,28.55
2022-08-14T00:46:54.309Z,28.44
2022-08-14T00:52:00.680Z,28.38
2022-08-14T00:57:02.612Z,28.40
2022-08-14T01:02:05.966Z,27.91
2022-08-14T01:07:11.700Z,28.00
2022-08-14T01:12:26.810Z,27.78
2022-08-14T01:17:51.933Z,27.54
2022-08-14T01:22:55.475Z,27.89
2022-08-14T01:27:59.145Z,27.70
2022-08-14T01:33:03.288Z,27.65
2022-08-14T01:38:05.725Z,27.61
2022-08-14T01:43:15.960Z,27.60
2022-08-14T01:48:21.073Z,27.59
2022-08-14T01:53:22.945Z,27.45
2022-08-14T01:58:29.970Z,27.45
2022-08-14T02:03:35.535Z,27.46
2022-08-14T02:08:52.501Z,27.65
2022-08-14T02:14:06.681Z,27.35
2022-08-14T02:19:15.437Z,27.28
2022-08-14T02:24:38.806Z,27.33
2022-08-14T02:29:59.987Z,27.31
2022-08-14T02:35:16.747Z,27.53
2022-08-14T02:40:31.768Z,27.29
2022-08-14T02:45:37.993Z,27.46
2022-08-14T02:50:51.634Z,27.58
2022-08-14T02:55:56.446Z,27.59
2022-08-14T03:01:08.642Z,27.54
2022-08-14T03:06:11.428Z,27.50
2022-08-14T03:11:14.031Z,27.43
2022-08-14T03:16:26.993Z,27.60
2022-08-14T03:21:31.093Z,27.35
2022-08-14T03:26:35.175Z,27.43
2022-08-14T03:31:40.487Z,27.81
2022-08-14T03:37:39.165Z,27.87
2022-08-14T03:42:19.368Z,27.93
2022-08-14T03:47:21.604Z,27.92
2022-08-14T03:52:38.766Z,28.24
2022-08-14T03:57:43.653Z,28.11
2022-08-14T04:02:53.379Z,28.08
2022-08-14T04:08:23.066Z,28.06
2022-08-14T04:13:18.597Z,28.05
2022-08-14T04:18:20.651Z,28.16
2022-08-14T04:23:29.786Z,28.03
2022-08-14T04:29:06.997Z,28.36
2022-08-14T04:33:58.884Z,28.40
2022-08-14T04:39:19.446Z,28.29
2022-08-14T04:44:35.812Z,28.45
2022-08-14T04:49:46.511Z,28.49
2022-08-14T04:54:59.857Z,28.46
2022-08-14T05:00:02.862Z,28.80
2022-08-14T05:05:04.939Z,28.53
2022-08-14T05:10:13.274Z,28.72
2022-08-14T05:15:21.975Z,28.76
2022-08-14T05:21:57.840Z,28.72
2022-08-14T05:25:49.418Z,28.93
2022-08-14T05:30:57.011Z,29.00
2022-08-14T05:36:03.151Z,29.08
2022-08-14T05:41:08.717Z,29.00
2022-08-14T05:46:15.254Z,28.98
2022-08-14T05:51:17.571Z,29.23
2022-08-14T05:56:20.377Z,29.50
2022-08-14T06:01:22.743Z,29.61
2022-08-14T06:06:25.438Z,29.22
2022-08-14T06:11:31.096Z,29.18
2022-08-14T06:16:33.611Z,29.46
2022-08-14T06:21:35.552Z,29.57
2022-08-14T06:26:37.563Z,29.76
2022-08-14T06:31:39.753Z,29.93
2022-08-14T06:36:42.538Z,30.20
2022-08-14T06:41:58.772Z,29.82
2022-08-14T06:47:03.436Z,29.78
2022-08-14T06:52:05.933Z,29.94
2022-08-14T06:57:08.178Z,30.37
2022-08-14T07:02:30.383Z,30.39
2022-08-14T07:07:39.727Z,31.02
2022-08-14T07:13:00.927Z,31.64
2022-08-14T07:18:05.125Z,31.93
2022-08-14T07:23:20.480Z,31.85
2022-08-14T07:28:25.588Z,31.58
2022-08-14T07:33:31.536Z,31.99
2022-08-14T07:38:37.769Z,31.97
2022-08-14T07:43:41.410Z,31.85
2022-08-14T07:48:44.273Z,31.19
2022-08-14T07:53:56.816Z,31.04
2022-08-14T07:58:59.693Z,30.74
2022-08-14T08:04:04.235Z,30.78
2022-08-14T08:09:21.657Z,30.86
2022-08-14T08:14:25.435Z,30.57
2022-08-14T08:19:36.934Z,30.64
2022-08-14T08:24:41.819Z,30.61
2022-08-14T08:29:50.459Z,30.88
2022-08-14T08:34:53.567Z,31.20
2022-08-14T08:40:02.923Z,31.06
2022-08-14T08:45:08.072Z,31.13
2022-08-14T08:50:23.120Z,31.42
2022-08-14T08:55:31.326Z,31.22
2022-08-14T09:00:35.021Z,30.74
2022-08-14T09:05:50.219Z,30.51
2022-08-14T09:10:57.180Z,30.86
2022-08-14T09:15:59.933Z,31.12
2022-08-14T09:21:02.075Z,31.40
2022-08-14T09:26:04.944Z,31.29
2022-08-14T09:31:23.606Z,31.69
2022-08-14T09:36:43.634Z,31.00
2022-08-14T09:42:21.075Z,31.13
2022-08-14T09:47:12.415Z,30.78
2022-08-14T09:52:23.656Z,30.78
2022-08-14T09:57:35.649Z,31.44
2022-08-14T10:02:37.977Z,30.40
2022-08-14T10:07:53.759Z,30.14
2022-08-14T10:13:02.621Z,29.18
2022-08-14T10:18:17.238Z,29.31
2022-08-14T10:23:24.904Z,29.17
2022-08-14T10:29:18.984Z,29.33
2022-08-14T10:34:14.090Z,28.81
2022-08-14T10:39:20.505Z,28.84
2022-08-14T10:44:25.175Z,29.29
2022-08-14T10:49:32.279Z,29.12
2022-08-14T10:54:43.220Z,28.37
2022-08-14T10:59:55.910Z,27.58
2022-08-14T11:05:05.881Z,28.21
2022-08-14T11:10:14.241Z,28.38
2022-08-14T11:15:22.739Z,28.19
2022-08-14T11:20:27.422Z,28.31
2022-08-14T11:25:36.797Z,28.48
2022-08-14T11:30:53.856Z,28.06
2022-08-14T11:35:59.680Z,28.17
2022-08-14T11:41:02.610Z,28.07
2022-08-14T11:46:06.534Z,28.65
2022-08-14T11:51:30.545Z,29.04
2022-08-14T11:56:37.389Z,28.76
2022-08-14T12:01:41.123Z,28.33
2022-08-14T12:06:52.975Z,28.36
2022-08-14T12:11:55.707Z,27.82
2022-08-14T12:17:12.539Z,27.51
2022-08-14T12:22:29.385Z,27.46
2022-08-14T12:27:53.986Z,27.38
2022-08-14T12:32:56.810Z,27.06
2022-08-14T12:37:58.808Z,26.96
2022-08-14T12:43:03.592Z,27.00
2022-08-14T12:48:21.202Z,26.53
2022-08-14T12:53:38.594Z,26.66
2022-08-14T12:58:52.514Z,26.93
2022-08-14T13:04:17.408Z,26.57
2022-08-14T13:09:23.249Z,26.93
2022-08-14T13:14:29.667Z,26.76
2022-08-14T13:19:33.319Z,26.95
2022-08-14T13:24:38.014Z,26.84
2022-08-14T13:29:46.754Z,27.15
2022-08-14T13:34:49.554Z,27.12
2022-08-14T13:39:57.933Z,26.92
2022-08-14T13:45:06.559Z,26.95
2022-08-14T13:50:13.038Z,26.96
2022-08-14T13:55:18.593Z,26.97
2022-08-14T14:00:32.812Z,27.00
2022-08-14T14:05:53.250Z,27.06
2022-08-14T14:10:56.445Z,27.13
2022-08-14T14:16:01.198Z,27.02
2022-08-14T14:21:05.806Z,27.07
2022-08-14T14:26:13.973Z,26.84
2022-08-14T14:31:22.314Z,26.50
2022-08-14T14:36:32.833Z,26.44
2022-08-14T14:41:43.833Z,27.03
2022-08-14T14:46:50.799Z,26.70
2022-08-14T14:51:53.230Z,26.97
2022-08-14T14:56:56.664Z,26.91
2022-08-14T15:02:08.197Z,26.95
2022-08-14T15:07:12.338Z,26.83
2022-08-14T15:12:34.154Z,26.96
2022-08-14T15:17:41.548Z,27.12
2022-08-14T15:22:43.848Z,27.04
2022-08-14T15:27:54.660Z,27.16
2022-08-14T15:32:57.288Z,27.86
2022-08-14T15:38:04.679Z,27.92
2022-08-14T15:43:12.859Z,28.48
2022-08-14T15:48:22.638Z,28.76
2022-08-14T15:53:25.531Z,28.98
2022-08-14T15:58:33.630Z,28.22
2022-08-14T16:03:42.268Z,29.00
2022-08-14T16:08:50.187Z,28.34
2022-08-14T16:13:59.629Z,28.91
2022-08-14T16:19:07.285Z,27.92
2022-08-14T16:24:27.839Z,27.03
2022-08-14T16:29:32.305Z,27.38
2022-08-14T16:34:47.050Z,27.70
2022-08-14T16:39:53.969Z,27.72
2022-08-14T16:44:58.581Z,27.36
2022-08-14T16:50:05.141Z,27.88
2022-08-14T16:55:12.310Z,27.96
2022-08-14T17:00:28.832Z,28.41
2022-08-14T17:05:37.368Z,28.05
2022-08-14T17:11:00.879Z,28.24
2022-08-14T17:16:24.645Z,27.93
2022-08-14T17:21:37.641Z,28.19
2022-08-14T17:26:49.247Z,27.89
2022-08-14T17:32:22.183Z,28.14
2022-08-14T17:37:55.514Z,28.33
2022-08-14T17:43:02.510Z,28.07
2022-08-14T17:48:06.602Z,28.55
2022-08-14T17:53:09.821Z,29.33
2022-08-14T17:58:21.344Z,28.83
2022-08-14T18:03:46.720Z,28.85
2022-08-14T18:08:50.024Z,28.80
2022-08-14T18:14:00.017Z,31.48
2022-08-14T18:19:04.613Z,30.29
2022-08-14T18:24:20.378Z,29.83
2022-08-14T18:29:32.030Z,31.81
2022-08-14T18:34:48.408Z,31.11
2022-08-14T18:40:03.526Z,30.84
2022-08-14T18:45:15.296Z,30.47
2022-08-14T18:50:31.125Z,30.03
2022-08-14T18:55:36.337Z,29.94
2022-08-14T19:00:51.254Z,30.04
2022-08-14T19:05:54.824Z,29.91
2022-08-14T19:11:04.245Z,29.78
2022-08-14T19:16:14.627Z,30.02
2022-08-14T19:21:26.679Z,29.69
2022-08-14T19:26:36.819Z,29.65
2022-08-14T19:31:55.218Z,29.63
2022-08-14T19:37:06.582Z,29.88
2022-08-14T19:42:14.790Z,29.87
2022-08-14T19:47:41.535Z,29.99
2022-08-14T19:52:45.978Z,30.56
2022-08-14T19:57:58.611Z,30.32
2022-08-14T20:03:12.101Z,30.31
2022-08-14T20:10:58.317Z,30.16
2022-08-14T20:13:39.622Z,30.36
2022-08-14T20:18:52.107Z,30.42
2022-08-14T20:24:31.162Z,30.45
2022-08-14T20:29:38.864Z,30.47
2022-08-14T20:34:51.044Z,30.53
2022-08-14T20:39:54.487Z,30.87
2022-08-14T20:45:19.735Z,30.83
2022-08-14T20:50:28.670Z,31.53
2022-08-14T20:55:41.559Z,31.78
2022-08-14T21:00:52.121Z,32.45
2022-08-14T21:06:00.154Z,33.23
2022-08-14T21:11:04.791Z,32.27
2022-08-14T21:16:34.548Z,31.82
2022-08-14T21:21:40.934Z,32.33
2022-08-14T21:26:52.493Z,32.10
2022-08-14T21:32:02.399Z,31.77
2022-08-14T21:37:23.674Z,31.83
2022-08-14T21:42:27.864Z,31.68
2022-08-14T21:47:30.203Z,31.65
2022-08-14T21:52:52.226Z,31.49
2022-08-14T21:58:51.447Z,31.31
2022-08-14T22:03:24.190Z,31.13
2022-08-14T22:08:27.319Z,31.29
2022-08-14T22:13:32.057Z,31.27
2022-08-14T22:18:34.509Z,31.06
2022-08-14T22:23:38.595Z,30.94
2022-08-14T22:28:44.937Z,30.64
2022-08-14T22:33:49.877Z,31.03
2022-08-14T22:38:51.918Z,30.95
2022-08-14T22:44:08.526Z,31.02
2022-08-14T22:49:16.535Z,30.95
2022-08-14T22:54:52.680Z,30.75
2022-08-14T22:59:55.801Z,30.59
2022-08-14T23:04:58.924Z,30.84
2022-08-14T23:10:31.288Z,30.79
2022-08-14T23:15:30.234Z,30.56
2022-08-14T23:20:36.381Z,30.58
2022-08-14T23:25:59.639Z,30.63
2022-08-14T23:31:03.669Z,30.78
2022-08-14T23:36:28.213Z,30.46
2022-08-14T23:41:45.836Z,30.61
2022-08-14T23:47:00.479Z,30.68
2022-08-14T23:52:56.360Z,30.75
2022-08-14T23:57:30.769Z,30.87
